createdAt,value
2023-04-08T00:01:07.370Z,60.89
2023-04-08T00:03:34.444Z,61.02
2023-04-08T00:06:03.172Z,61.15
2023-04-08T00:08:30.592Z,61.17
2023-04-08T00:10:57.756Z,60.97
2023-04-08T00:13:24.696Z,61.36
2023-04-08T00:15:51.702Z,61.21
2023-04-08T00:18:18.819Z,61.21
2023-04-08T00:20:45.887Z,61.28
2023-04-08T00:23:12.836Z,61.29
2023-04-08T00:25:39.817Z,61.44
2023-04-08T00:28:06.924Z,61.45
2023-04-08T00:30:33.885Z,61.62
2023-04-08T00:33:03.042Z,61.54
2023-04-08T00:35:30.174Z,61.73
2023-04-08T00:37:57.289Z,61.34
2023-04-08T00:40:24.232Z,61.34
2023-04-08T00:42:51.224Z,61.47
2023-04-08T00:45:18.179Z,61.65
2023-04-08T00:47:46.653Z,61.57
2023-04-08T00:50:13.642Z,61.30
2023-04-08T00:52:40.794Z,61.48
2023-04-08T00:55:07.978Z,61.70
2023-04-08T00:57:35.323Z,61.75
2023-04-08T01:00:05.856Z,61.33
2023-04-08T01:02:54.373Z,60.99
2023-04-08T01:05:39.879Z,61.43
2023-04-08T01:08:08.388Z,61.65
2023-04-08T01:10:37.765Z,61.93
2023-04-08T01:13:12.014Z,61.62
2023-04-08T01:15:41.274Z,61.64
2023-04-08T01:18:13.979Z,61.59
2023-04-08T01:20:43.178Z,61.74
2023-04-08T01:23:28.663Z,61.07
2023-04-08T01:25:57.111Z,61.36
2023-04-08T01:28:28.125Z,61.83
2023-04-08T01:30:58.026Z,61.21
2023-04-08T01:33:28.905Z,61.89
2023-04-08T01:35:57.599Z,61.70
2023-04-08T01:38:26.619Z,61.71
2023-04-08T01:40:55.668Z,61.75
2023-04-08T01:43:24.380Z,62.04
2023-04-08T01:45:54.451Z,61.93
2023-04-08T01:48:22.284Z,61.85
2023-04-08T01:50:51.309Z,62.22
2023-04-08T01:53:18.442Z,62.12
2023-04-08T01:55:49.318Z,62.15
2023-04-08T01:58:21.726Z,61.82
2023-04-08T02:00:51.554Z,62.03
2023-04-08T02:03:22.776Z,62.02
2023-04-08T02:05:50.190Z,62.24
2023-04-08T02:08:17.144Z,61.82
2023-04-08T02:10:44.110Z,62.19
2023-04-08T02:13:11.016Z,62.18
2023-04-08T02:15:45.380Z,61.91
2023-04-08T02:18:29.232Z,61.88
2023-04-08T02:21:17.743Z,61.63
2023-04-08T02:23:50.103Z,62.12
2023-04-08T02:26:19.268Z,62.15
2023-04-08T02:28:49.664Z,61.98
2023-04-08T02:31:18.373Z,62.10
2023-04-08T02:33:46.581Z,62.05
2023-04-08T02:36:15.545Z,62.16
2023-04-08T02:38:42.566Z,62.29
2023-04-08T02:41:09.483Z,62.33
2023-04-08T02:43:36.784Z,62.36
2023-04-08T02:46:07.214Z,62.28
2023-04-08T02:48:36.557Z,62.16
2023-04-08T02:51:03.680Z,62.25
2023-04-08T02:53:30.783Z,62.21
2023-04-08T02:55:57.758Z,62.45
2023-04-08T02:58:24.679Z,62.04
2023-04-08T03:00:51.724Z,62.13
2023-04-08T03:03:18.733Z,62.10
2023-04-08T03:05:45.909Z,62.46
2023-04-08T03:08:12.854Z,62.45
2023-04-08T03:10:39.816Z,62.12
2023-04-08T03:13:06.729Z,62.10
2023-04-08T03:15:33.649Z,62.26
2023-04-08T03:18:00.768Z,62.65
2023-04-08T03:20:27.744Z,62.54
2023-04-08T03:22:54.685Z,62.41
2023-04-08T03:25:21.652Z,62.59
2023-04-08T03:27:48.654Z,62.30
2023-04-08T03:30:15.824Z,62.33
2023-04-08T03:32:43.016Z,62.43
2023-04-08T03:35:10.409Z,62.64
2023-04-08T03:37:37.326Z,62.61
2023-04-08T03:40:05.332Z,62.42
2023-04-08T03:42:32.373Z,62.55
2023-04-08T03:44:59.284Z,62.05
2023-04-08T03:47:27.180Z,62.27
2023-04-08T03:49:56.853Z,62.53
2023-04-08T03:52:24.938Z,62.45
2023-04-08T03:54:51.866Z,62.30
2023-04-08T03:57:18.789Z,62.51
2023-04-08T03:59:45.714Z,62.18
2023-04-08T04:02:12.789Z,62.12
2023-04-08T04:04:39.898Z,62.25
2023-04-08T04:07:06.898Z,62.27
2023-04-08T04:09:33.923Z,62.31
2023-04-08T04:12:01.127Z,62.15
2023-04-08T04:14:28.116Z,62.35
2023-04-08T04:16:55.156Z,62.06
2023-04-08T04:19:22.087Z,62.01
2023-04-08T04:21:49.053Z,62.09
2023-04-08T04:24:16.028Z,62.13
2023-04-08T04:26:42.964Z,62.05
2023-04-08T04:29:09.908Z,62.22
2023-04-08T04:31:37.059Z,62.22
2023-04-08T04:34:04.173Z,62.24
2023-04-08T04:36:32.020Z,62.36
2023-04-08T04:38:59.045Z,62.19
2023-04-08T04:41:27.169Z,62.62
2023-04-08T04:43:54.177Z,62.44
2023-04-08T04:46:21.366Z,62.57
2023-04-08T04:48:48.411Z,62.46
2023-04-08T04:51:15.567Z,62.60
2023-04-08T04:53:42.604Z,62.31
2023-04-08T04:56:09.520Z,62.65
2023-04-08T04:58:36.561Z,62.44
2023-04-08T05:01:03.586Z,62.41
2023-04-08T05:03:31.194Z,62.74
2023-04-08T05:05:58.186Z,62.57
2023-04-08T05:08:27.343Z,62.76
2023-04-08T05:10:56.008Z,62.75
2023-04-08T05:13:22.949Z,62.64
2023-04-08T05:15:49.938Z,62.65
2023-04-08T05:18:16.930Z,62.89
2023-04-08T05:20:43.888Z,62.59
2023-04-08T05:23:10.893Z,62.80
2023-04-08T05:25:38.002Z,62.77
2023-04-08T05:28:04.991Z,63.02
2023-04-08T05:30:31.927Z,62.90
2023-04-08T05:33:00.617Z,62.78
2023-04-08T05:35:28.777Z,62.84
2023-04-08T05:37:55.972Z,62.98
2023-04-08T05:40:23.414Z,62.98
2023-04-08T05:42:50.358Z,63.13
2023-04-08T05:45:17.477Z,63.15
2023-04-08T05:47:44.544Z,63.04
2023-04-08T05:50:11.621Z,63.16
2023-04-08T05:52:44.631Z,63.15
2023-04-08T05:55:14.925Z,63.06
2023-04-08T05:57:42.277Z,63.49
2023-04-08T06:00:11.077Z,63.23
2023-04-08T06:02:38.893Z,63.53
2023-04-08T06:05:06.739Z,63.40
2023-04-08T06:07:34.490Z,63.50
2023-04-08T06:10:02.108Z,63.82
2023-04-08T06:12:29.441Z,63.78
2023-04-08T06:14:56.530Z,63.96
2023-04-08T06:17:24.004Z,63.83
2023-04-08T06:19:51.051Z,63.86
2023-04-08T06:22:18.038Z,64.02
2023-04-08T06:24:46.977Z,64.25
2023-04-08T06:27:14.110Z,64.15
2023-04-08T06:29:42.952Z,63.86
2023-04-08T06:32:10.729Z,63.92
2023-04-08T06:34:38.110Z,64.10
2023-04-08T06:37:06.107Z,64.09
2023-04-08T06:39:33.763Z,64.34
2023-04-08T06:42:00.824Z,64.47
2023-04-08T06:44:37.543Z,64.12
2023-04-08T06:47:04.439Z,65.13
2023-04-08T06:49:31.377Z,64.32
2023-04-08T06:51:58.352Z,64.63
2023-04-08T06:54:25.582Z,64.48
2023-04-08T06:56:52.498Z,64.36
2023-04-08T06:59:19.457Z,64.70
2023-04-08T07:01:46.741Z,64.66
2023-04-08T07:04:13.802Z,64.38
2023-04-08T07:06:40.903Z,64.86
2023-04-08T07:09:08.205Z,65.04
2023-04-08T07:11:35.303Z,64.94
2023-04-08T07:14:02.761Z,64.92
2023-04-08T07:16:29.709Z,65.12
2023-04-08T07:18:56.943Z,65.15
2023-04-08T07:21:23.925Z,65.11
2023-04-08T07:23:50.961Z,65.06
2023-04-08T07:26:17.905Z,65.17
2023-04-08T07:28:44.932Z,65.15
2023-04-08T07:31:17.629Z,64.93
2023-04-08T07:33:45.850Z,65.34
2023-04-08T07:36:14.220Z,65.15
2023-04-08T07:38:41.280Z,65.10
2023-04-08T07:41:08.254Z,66.19
2023-04-08T07:43:37.004Z,65.71
2023-04-08T07:46:05.694Z,65.67
2023-04-08T07:48:33.640Z,65.65
2023-04-08T07:51:08.303Z,65.79
2023-04-08T07:53:39.240Z,65.87
2023-04-08T07:56:18.181Z,65.52
2023-04-08T07:58:46.466Z,66.21
2023-04-08T08:01:22.518Z,65.95
2023-04-08T08:03:52.570Z,66.65
2023-04-08T08:06:20.614Z,66.49
2023-04-08T08:08:47.654Z,66.91
2023-04-08T08:11:14.698Z,66.37
2023-04-08T08:13:41.631Z,66.79
2023-04-08T08:16:11.383Z,66.56
2023-04-08T08:18:40.053Z,67.08
2023-04-08T08:21:07.715Z,67.07
2023-04-08T08:23:34.770Z,67.10
2023-04-08T08:26:07.641Z,67.21
2023-04-08T08:28:34.645Z,67.23
2023-04-08T08:31:02.288Z,67.10
2023-04-08T08:33:29.371Z,66.98
2023-04-08T08:35:57.930Z,67.20
2023-04-08T08:38:26.046Z,67.05
2023-04-08T08:41:00.095Z,66.98
2023-04-08T08:43:28.908Z,66.89
2023-04-08T08:45:56.362Z,67.34
2023-04-08T08:48:23.337Z,66.96
2023-04-08T08:50:50.399Z,67.49
2023-04-08T08:53:19.508Z,67.60
2023-04-08T08:56:15.774Z,67.33
2023-04-08T08:58:33.511Z,67.68
2023-04-08T09:01:00.956Z,67.71
2023-04-08T09:03:29.067Z,67.09
2023-04-08T09:06:01.934Z,67.56
2023-04-08T09:08:37.070Z,67.56
2023-04-08T09:11:19.254Z,67.46
2023-04-08T09:13:47.330Z,67.71
2023-04-08T09:16:18.287Z,67.47
2023-04-08T09:18:49.311Z,67.64
2023-04-08T09:21:18.002Z,67.74
2023-04-08T09:23:48.866Z,67.30
2023-04-08T09:26:22.826Z,67.56
2023-04-08T09:29:24.350Z,67.40
2023-04-08T09:31:58.004Z,66.96
2023-04-08T09:34:27.391Z,67.13
2023-04-08T09:36:55.707Z,67.09
2023-04-08T09:39:22.857Z,66.99
2023-04-08T09:41:54.858Z,67.14
2023-04-08T09:44:26.579Z,66.72
2023-04-08T09:47:10.065Z,66.86
2023-04-08T09:49:58.336Z,67.35
2023-04-08T09:52:36.921Z,67.23
2023-04-08T09:55:12.435Z,67.46
2023-04-08T09:58:01.315Z,67.18
2023-04-08T10:00:34.399Z,66.69
2023-04-08T10:03:48.522Z,67.19
2023-04-08T10:06:17.002Z,66.60
2023-04-08T10:08:45.128Z,66.67
2023-04-08T10:11:12.334Z,66.37
2023-04-08T10:13:39.331Z,66.26
2023-04-08T10:16:27.316Z,66.43
2023-04-08T10:18:58.048Z,66.21
2023-04-08T10:21:37.465Z,66.11
2023-04-08T10:24:11.961Z,66.52
2023-04-08T10:26:45.107Z,66.29
2023-04-08T10:29:20.686Z,65.44
2023-04-08T10:31:50.497Z,65.59
2023-04-08T10:34:19.086Z,65.20
2023-04-08T10:36:46.625Z,65.43
2023-04-08T10:39:15.848Z,64.09
2023-04-08T10:41:44.169Z,64.68
2023-04-08T10:44:27.391Z,65.07
2023-04-08T10:46:55.570Z,64.85
2023-04-08T10:49:22.624Z,64.62
2023-04-08T10:51:49.799Z,64.30
2023-04-08T10:54:18.536Z,64.29
2023-04-08T10:56:52.378Z,65.26
2023-04-08T10:59:34.742Z,64.97
2023-04-08T11:02:02.448Z,64.87
2023-04-08T11:04:29.908Z,64.70
2023-04-08T11:06:58.194Z,64.33
2023-04-08T11:09:25.140Z,64.20
2023-04-08T11:11:53.524Z,64.55
2023-04-08T11:14:21.905Z,64.32
2023-04-08T11:16:49.084Z,63.52
2023-04-08T11:19:16.054Z,63.31
2023-04-08T11:21:43.170Z,64.22
2023-04-08T11:24:16.390Z,63.95
2023-04-08T11:26:43.637Z,63.86
2023-04-08T11:29:14.542Z,64.06
2023-04-08T11:31:43.817Z,63.86
2023-04-08T11:34:11.053Z,63.50
2023-04-08T11:36:41.577Z,64.36
2023-04-08T11:39:10.037Z,63.74
2023-04-08T11:41:41.843Z,63.66
2023-04-08T11:44:09.287Z,63.50
2023-04-08T11:46:36.540Z,63.97
2023-04-08T11:49:08.554Z,64.05
2023-04-08T11:51:54.862Z,63.43
2023-04-08T11:54:33.186Z,64.11
2023-04-08T11:57:00.784Z,63.20
2023-04-08T11:59:29.660Z,63.14
2023-04-08T12:01:57.245Z,63.97
2023-04-08T12:04:24.374Z,63.21
2023-04-08T12:06:52.283Z,63.59
2023-04-08T12:09:19.274Z,63.75
2023-04-08T12:11:46.608Z,63.56
2023-04-08T12:14:13.860Z,63.90
2023-04-08T12:16:41.206Z,64.09
2023-04-08T12:19:08.179Z,63.85
2023-04-08T12:21:36.000Z,63.27
2023-04-08T12:24:03.112Z,63.54
2023-04-08T12:26:30.204Z,64.08
2023-04-08T12:28:57.151Z,63.74
2023-04-08T12:31:24.144Z,62.99
2023-04-08T12:33:51.230Z,62.74
2023-04-08T12:36:18.409Z,63.34
2023-04-08T12:38:45.898Z,63.90
2023-04-08T12:41:12.922Z,62.67
2023-04-08T12:43:39.876Z,62.87
2023-04-08T12:46:07.278Z,62.57
2023-04-08T12:48:34.246Z,62.20
2023-04-08T12:51:01.192Z,62.56
2023-04-08T12:53:28.142Z,62.66
2023-04-08T12:55:57.257Z,62.27
2023-04-08T12:58:27.878Z,62.43
2023-04-08T13:00:54.944Z,62.36
2023-04-08T13:03:22.408Z,61.94
2023-04-08T13:05:49.581Z,61.88
2023-04-08T13:08:17.533Z,61.75
2023-04-08T13:10:44.527Z,62.35
2023-04-08T13:13:14.064Z,62.61
2023-04-08T13:15:41.039Z,64.00
2023-04-08T13:18:08.249Z,63.44
2023-04-08T13:20:35.461Z,64.03
2023-04-08T13:23:02.635Z,63.99
2023-04-08T13:25:29.682Z,63.90
2023-04-08T13:27:56.727Z,64.38
2023-04-08T13:30:23.900Z,64.41
2023-04-08T13:32:51.150Z,64.86
2023-04-08T13:35:18.184Z,65.22
2023-04-08T13:37:45.216Z,63.76
2023-04-08T13:40:12.378Z,64.05
2023-04-08T13:42:39.405Z,63.03
2023-04-08T13:45:07.139Z,63.82
2023-04-08T13:47:35.765Z,63.75
2023-04-08T13:50:04.591Z,63.87
2023-04-08T13:52:31.632Z,63.42
2023-04-08T13:54:58.575Z,63.13
2023-04-08T13:57:25.629Z,64.09
2023-04-08T13:59:52.723Z,64.84
2023-04-08T14:02:19.707Z,61.54
2023-04-08T14:04:46.907Z,61.61
2023-04-08T14:07:15.348Z,60.29
2023-04-08T14:09:42.387Z,59.28
2023-04-08T14:12:09.975Z,58.58
2023-04-08T14:14:36.909Z,59.42
2023-04-08T14:17:04.259Z,58.79
2023-04-08T14:19:32.061Z,59.80
2023-04-08T14:21:59.006Z,58.91
2023-04-08T14:24:26.046Z,60.41
2023-04-08T14:26:52.972Z,59.59
2023-04-08T14:29:20.166Z,57.59
2023-04-08T14:31:47.250Z,58.73
2023-04-08T14:34:14.204Z,57.67
2023-04-08T14:36:41.148Z,57.96
2023-04-08T14:39:08.110Z,57.43
2023-04-08T14:41:35.064Z,58.36
2023-04-08T14:44:01.977Z,58.59
2023-04-08T14:46:29.331Z,58.77
2023-04-08T14:48:56.755Z,59.13
2023-04-08T14:51:23.678Z,58.85
2023-04-08T14:53:50.725Z,58.30
2023-04-08T14:56:17.685Z,58.20
2023-04-08T14:58:44.607Z,58.57
2023-04-08T15:01:11.896Z,58.22
2023-04-08T15:03:39.058Z,58.06
2023-04-08T15:06:07.126Z,57.80
2023-04-08T15:08:35.004Z,58.09
2023-04-08T15:11:02.036Z,58.04
2023-04-08T15:13:28.976Z,58.31
2023-04-08T15:15:55.974Z,58.32
2023-04-08T15:18:23.001Z,57.93
2023-04-08T15:20:49.921Z,58.28
2023-04-08T15:23:17.247Z,58.58
2023-04-08T15:25:44.178Z,58.41
2023-04-08T15:28:11.226Z,58.16
2023-04-08T15:30:38.215Z,58.41
2023-04-08T15:33:05.623Z,58.58
2023-04-08T15:35:33.464Z,58.15
2023-04-08T15:38:00.698Z,58.08
2023-04-08T15:40:28.032Z,58.52
2023-04-08T15:42:55.771Z,58.66
2023-04-08T15:45:22.938Z,58.19
2023-04-08T15:47:49.909Z,58.04
2023-04-08T15:50:17.398Z,57.78
2023-04-08T15:52:45.075Z,57.83
2023-04-08T15:55:12.159Z,57.98
2023-04-08T15:57:39.141Z,58.42
2023-04-08T16:00:11.068Z,58.84
2023-04-08T16:02:41.067Z,57.94
2023-04-08T16:05:09.060Z,58.23
2023-04-08T16:07:36.184Z,56.70
2023-04-08T16:10:03.207Z,56.32
2023-04-08T16:12:30.342Z,56.68
2023-04-08T16:14:57.832Z,57.15
2023-04-08T16:17:24.845Z,56.96
2023-04-08T16:19:52.253Z,57.33
2023-04-08T16:22:19.494Z,57.73
2023-04-08T16:24:46.427Z,57.63
2023-04-08T16:27:13.546Z,57.98
2023-04-08T16:29:40.581Z,57.94
2023-04-08T16:32:08.752Z,58.49
2023-04-08T16:34:36.042Z,57.99
2023-04-08T16:37:03.062Z,58.07
2023-04-08T16:39:30.068Z,57.78
2023-04-08T16:41:57.154Z,57.97
2023-04-08T16:44:24.176Z,57.63
2023-04-08T16:46:51.294Z,57.43
2023-04-08T16:49:18.567Z,57.71
2023-04-08T16:51:45.671Z,57.99
2023-04-08T16:54:12.679Z,57.92
2023-04-08T16:56:44.203Z,57.99
2023-04-08T16:59:12.465Z,57.99
2023-04-08T17:01:39.481Z,57.93
2023-04-08T17:04:06.698Z,57.98
2023-04-08T17:06:35.658Z,57.77
2023-04-08T17:09:03.898Z,58.01
2023-04-08T17:11:31.150Z,57.93
2023-04-08T17:13:58.284Z,58.15
2023-04-08T17:16:25.390Z,57.84
2023-04-08T17:18:52.771Z,58.03
2023-04-08T17:21:20.075Z,57.84
2023-04-08T17:23:47.258Z,57.71
2023-04-08T17:26:14.542Z,57.67
2023-04-08T17:28:41.614Z,57.97
2023-04-08T17:31:09.313Z,57.97
2023-04-08T17:33:36.315Z,58.15
2023-04-08T17:36:03.482Z,58.40
2023-04-08T17:38:30.558Z,57.86
2023-04-08T17:40:57.570Z,58.27
2023-04-08T17:43:24.650Z,57.77
2023-04-08T17:45:51.709Z,58.07
2023-04-08T17:48:18.728Z,58.12
2023-04-08T17:50:46.540Z,58.12
2023-04-08T17:53:13.616Z,58.24
2023-04-08T17:55:40.585Z,58.27
2023-04-08T17:58:07.572Z,57.85
2023-04-08T18:00:34.568Z,58.29
2023-04-08T18:03:01.685Z,58.32
2023-04-08T18:05:29.975Z,58.33
2023-04-08T18:07:58.156Z,58.06
2023-04-08T18:10:25.333Z,57.95
2023-04-08T18:13:00.563Z,57.95
2023-04-08T18:15:40.850Z,57.97
2023-04-08T18:18:07.819Z,58.46
2023-04-08T18:20:38.071Z,57.94
2023-04-08T18:23:05.360Z,58.03
2023-04-08T18:25:34.390Z,58.22
2023-04-08T18:28:01.790Z,58.34
2023-04-08T18:30:30.034Z,58.48
2023-04-08T18:32:57.106Z,58.55
2023-04-08T18:35:25.369Z,58.37
2023-04-08T18:37:52.337Z,58.39
2023-04-08T18:40:19.345Z,58.61
2023-04-08T18:42:46.254Z,58.54
2023-04-08T18:45:13.171Z,58.68
2023-04-08T18:47:40.155Z,58.52
2023-04-08T18:50:07.709Z,59.05
2023-04-08T18:52:34.854Z,58.77
2023-04-08T18:55:02.583Z,58.90
2023-04-08T18:57:29.643Z,58.59
2023-04-08T18:59:56.608Z,59.21
2023-04-08T19:02:23.681Z,58.99
2023-04-08T19:04:50.750Z,58.89
2023-04-08T19:07:17.976Z,59.29
2023-04-08T19:09:44.965Z,58.98
2023-04-08T19:12:11.932Z,58.96
2023-04-08T19:14:39.510Z,59.33
2023-04-08T19:17:06.687Z,59.22
2023-04-08T19:19:33.658Z,58.94
2023-04-08T19:22:02.770Z,59.16
2023-04-08T19:24:29.793Z,59.29
2023-04-08T19:26:57.088Z,59.55
2023-04-08T19:29:24.447Z,59.17
2023-04-08T19:31:52.687Z,59.21
2023-04-08T19:34:19.621Z,59.27
2023-04-08T19:36:47.696Z,59.35
2023-04-08T19:39:14.622Z,59.57
2023-04-08T19:41:41.651Z,59.79
2023-04-08T19:44:08.608Z,60.00
2023-04-08T19:46:35.627Z,60.04
2023-04-08T19:49:03.375Z,60.15
2023-04-08T19:51:32.660Z,59.57
2023-04-08T19:53:59.823Z,59.41
2023-04-08T19:56:27.793Z,59.54
2023-04-08T19:58:54.917Z,59.83
2023-04-08T20:01:22.229Z,60.16
2023-04-08T20:03:52.614Z,59.71
2023-04-08T20:06:20.692Z,59.32
2023-04-08T20:08:50.023Z,59.64
2023-04-08T20:11:17.261Z,59.60
2023-04-08T20:13:44.372Z,59.89
2023-04-08T20:16:11.736Z,59.53
2023-04-08T20:18:38.888Z,59.97
2023-04-08T20:21:07.315Z,59.57
2023-04-08T20:23:34.575Z,59.71
2023-04-08T20:26:02.123Z,60.01
2023-04-08T20:28:29.222Z,59.47
2023-04-08T20:30:56.507Z,60.19
2023-04-08T20:33:23.674Z,59.92
2023-04-08T20:35:53.043Z,61.29
2023-04-08T20:38:20.118Z,61.08
2023-04-08T20:40:47.104Z,60.50
2023-04-08T20:43:14.125Z,60.41
2023-04-08T20:45:41.145Z,59.96
2023-04-08T20:48:08.460Z,60.57
2023-04-08T20:50:35.493Z,60.30
2023-04-08T20:53:02.912Z,60.09
2023-04-08T20:55:29.845Z,59.72
2023-04-08T20:57:56.762Z,59.94
2023-04-08T21:00:23.812Z,60.60
2023-04-08T21:02:50.944Z,60.22
2023-04-08T21:05:18.173Z,60.71
2023-04-08T21:07:45.296Z,60.11
2023-04-08T21:10:14.101Z,60.05
2023-04-08T21:12:41.101Z,60.19
2023-04-08T21:15:09.007Z,60.46
2023-04-08T21:17:36.000Z,59.86
2023-04-08T21:20:04.319Z,60.03
2023-04-08T21:22:32.400Z,60.40
2023-04-08T21:24:59.353Z,60.24
2023-04-08T21:27:27.916Z,59.91
2023-04-08T21:29:54.891Z,59.99
2023-04-08T21:32:21.905Z,60.04
2023-04-08T21:34:48.924Z,60.33
2023-04-08T21:37:15.957Z,60.14
2023-04-08T21:39:42.904Z,59.65
2023-04-08T21:42:09.896Z,60.01
2023-04-08T21:44:36.944Z,60.12
2023-04-08T21:47:03.999Z,60.19
2023-04-08T21:49:31.437Z,60.17
2023-04-08T21:51:58.454Z,59.86
2023-04-08T21:54:25.488Z,59.98
2023-04-08T21:56:52.463Z,60.28
2023-04-08T21:59:19.923Z,60.40
2023-04-08T22:01:46.981Z,59.77
2023-04-08T22:04:14.065Z,60.16
2023-04-08T22:06:41.256Z,60.30
2023-04-08T22:09:08.257Z,60.29
2023-04-08T22:11:35.246Z,60.42
2023-04-08T22:14:02.190Z,60.30
2023-04-08T22:16:29.244Z,60.09
2023-04-08T22:18:56.322Z,60.57
2023-04-08T22:21:23.727Z,60.36
2023-04-08T22:23:50.875Z,60.33
2023-04-08T22:26:17.841Z,60.32
2023-04-08T22:28:44.826Z,60.48
2023-04-08T22:31:12.523Z,60.05
2023-04-08T22:33:40.085Z,60.23
2023-04-08T22:36:07.449Z,60.84
2023-04-08T22:38:34.438Z,60.42
2023-04-08T22:41:01.487Z,60.87
2023-04-08T22:43:28.448Z,60.89
2023-04-08T22:45:55.723Z,60.67
2023-04-08T22:48:22.705Z,60.76
2023-04-08T22:50:49.627Z,60.60
2023-04-08T22:53:16.590Z,60.99
2023-04-08T22:55:43.547Z,61.30
2023-04-08T22:58:10.814Z,61.53
2023-04-08T23:00:37.740Z,61.00
2023-04-08T23:03:04.913Z,60.98
2023-04-08T23:05:32.197Z,60.97
2023-04-08T23:07:59.153Z,61.58
2023-04-08T23:10:26.148Z,60.59
2023-04-08T23:12:53.203Z,60.68
2023-04-08T23:15:20.474Z,61.65
2023-04-08T23:17:47.466Z,60.98
2023-04-08T23:20:14.478Z,61.03
2023-04-08T23:22:41.487Z,60.97
2023-04-08T23:25:09.161Z,61.55
2023-04-08T23:27:36.197Z,61.46
2023-04-08T23:30:05.656Z,61.49
2023-04-08T23:32:33.971Z,61.78
2023-04-08T23:35:02.022Z,61.46
2023-04-08T23:37:29.764Z,61.43
2023-04-08T23:39:56.714Z,61.94
2023-04-08T23:42:27.149Z,61.53
2023-04-08T23:44:55.179Z,61.25
2023-04-08T23:47:22.368Z,61.42
2023-04-08T23:49:49.474Z,61.75
2023-04-08T23:52:16.613Z,61.99
2023-04-08T23:54:43.770Z,61.97
2023-04-08T23:57:10.680Z,61.69
2023-04-08T23:59:37.643Z,62.01
